Date,TemperatureHighF,TemperatureAvgF,TemperatureLowF,DewpointHighF,DewpointAvgF,DewpointLowF,HumidityHigh,HumidityAvg,HumidityLow,PressureMaxIn,PressureMinIn,WindSpeedMaxMPH,WindSpeedAvgMPH,GustSpeedMaxMPH,PrecipitationSumIn
2013-1-1,10,0,-12,7,-4,-16,90,83,70,30.66,30.23,17,2,20,0.00
2013-1-2,18,15,8,17,13,5,93,92,88,30.23,30.08,13,2,13,0.00
2013-1-3,18,13,4,15,8,2,99,83,66,30.33,29.92,31,6,31,0.00
2013-1-4,22,18,12,20,14,10,92,86,83,30.26,29.89,20,5,25,0.00
2013-1-5,26,18,5,22,16,2,93,89,80,30.35,29.99,12,2,14,0.00
2013-1-6,20,16,12,16,12,8,93,84,67,30.34,29.99,20,3,20,0.00
2013-1-7,32,25,18,25,20,14,94,82,74,30.04,29.53,24,7,31,0.00
2013-1-8,32,28,23,28,23,19,94,83,72,29.99,29.51,17,2,19,0.02
2013-1-9,28,24,21,26,21,17,93,87,83,30.46,29.51,28,7,29,0.00
2013-1-10,40,31,20,26,20,15,91,66,41,30.41,29.62,25,6,25,0.01
2013-1-11,35,33,31,33,32,25,97,95,73,29.63,29.17,13,2,17,0.21
2013-1-12,36,19,4,35,17,0,97,88,78,30.19,29.02,21,5,26,0.03
2013-1-13,4,1,-2,1,-3,-5,87,85,83,30.51,30.17,17,4,17,0.00
2013-1-14,2,-2,-4,-2,-5,-8,86,83,76,30.73,30.50,15,3,15,0.00
2013-1-15,19,11,2,10,4,-2,86,75,57,30.62,29.68,16,4,22,0.00
2013-1-16,20,9,-13,18,3,-17,93,77,57,30.56,29.43,25,7,25,0.02
2013-1-17,-2,-11,-23,-11,-17,-28,92,73,60,30.95,30.56,20,3,21,0.00
2013-1-18,14,2,-21,10,-1,-26,88,84,75,30.87,29.95,10,1,12,0.08
2013-1-19,24,8,-10,22,5,-14,94,88,82,30.32,29.52,23,6,26,0.10
2013-1-20,-4,-12,-17,-8,-16,-21,94,81,80,30.81,30.32,19,4,20,0.00
2013-1-21,-14,-21,-25,-19,-26,-30,92,78,76,30.93,30.61,17,4,20,0.00
2013-1-22,-11,-18,-26,-15,-22,-32,81,79,76,31.03,30.74,14,2,16,0.00
2013-1-23,-6,-12,-20,-8,-16,-25,92,81,78,31.25,30.59,20,4,20,0.00
2013-1-24,5,-12,-35,2,-16,-41,86,79,73,31.54,30.52,15,2,15,0.00
2013-1-25,9,6,1,5,2,-2,88,86,81,30.57,30.16,15,3,15,0.06
2013-1-26,18,5,-16,15,1,-21,91,86,79,30.85,30.32,17,2,21,0.00
2013-1-27,28,21,12,24,17,9,92,87,78,30.35,29.88,14,2,17,0.00
2013-1-28,30,27,26,28,26,24,96,94,91,29.88,29.67,16,2,16,0.00
2013-1-29,29,26,19,28,24,16,96,93,87,29.71,29.41,20,3,20,0.05
2013-1-30,19,7,-1,16,4,-5,93,86,81,29.90,29.64,22,7,22,0.00
2013-1-31,0,-4,-11,-4,-8,-15,85,81,75,30.50,29.89,22,7,22,0.00
2013-2-1,-7,-16,-25,-14,-21,-31,92,78,70,30.80,30.50,13,2,15,0.00
2013-2-2,7,-11,-32,-4,-18,-37,88,72,55,30.93,30.22,10,1,12,0.00
2013-2-3,0,-5,-12,-2,-10,-17,92,79,69,30.48,30.14,19,4,20,0.00
2013-2-4,4,-9,-30,-1,-15,-35,84,74,61,30.69,30.01,13,2,15,0.00
2013-2-5,10,3,-17,5,-2,-22,87,79,66,30.51,29.85,17,2,18,0.04
2013-2-6,15,5,-17,11,1,-22,96,81,65,30.57,30.37,11,1,11,0.01
2013-2-7,16,6,-6,10,2,-12,87,84,79,30.77,30.46,9,1,10,0.00
2013-2-8,23,5,-14,13,0,-18,90,79,60,30.99,30.42,15,2,17,0.00
2013-2-9,23,20,14,21,17,12,94,88,80,30.42,30.05,21,3,26,0.00
2013-2-10,25,24,23,24,22,21,95,94,93,30.06,29.36,19,4,21,0.35
2013-2-11,24,17,14,23,15,11,95,91,89,30.03,29.33,20,6,22,0.00
2013-2-12,26,18,11,23,16,9,100,91,89,30.03,29.66,14,2,15,0.00
2013-2-13,22,20,17,21,18,15,94,93,92,29.68,29.61,12,2,12,0.00
2013-2-14,22,11,4,20,6,0,93,81,74,30.36,29.67,20,5,20,0.00
2013-2-15,7,1,-16,1,-3,-21,87,82,73,30.67,30.32,16,3,17,0.00
2013-2-16,9,-10,-26,0,-16,-32,87,75,64,30.86,30.58,9,1,11,0.00
2013-2-17,21,10,-14,18,6,-19,90,85,73,30.58,29.76,26,5,26,0.01
2013-2-18,25,20,3,22,17,-1,94,90,86,29.81,29.48,20,4,24,0.02
2013-2-19,3,-3,-8,-1,-7,-12,85,82,79,30.83,29.81,27,10,29,0.00
2013-2-20,10,-4,-15,-6,-13,-20,83,66,44,31.12,30.81,18,4,21,0.00
2013-2-21,22,3,-23,10,-5,-29,86,70,55,31.22,30.46,13,2,14,0.00
2013-2-22,22,18,13,20,16,9,93,92,83,30.46,29.94,14,3,15,0.00
2013-2-23,26,18,4,21,14,1,100,87,77,30.11,29.83,10,1,11,0.01
2013-2-24,34,19,-1,25,14,-6,93,81,62,30.27,30.05,10,1,12,0.00
2013-2-25,39,22,6,25,16,2,93,79,54,30.27,29.98,12,1,13,0.00
2013-2-26,41,22,3,25,15,-1,95,76,45,30.29,30.02,10,1,12,0.00
2013-2-27,27,20,6,22,16,3,93,86,76,30.21,30.00,24,4,24,0.00
2013-2-28,25,18,8,17,10,0,88,70,53,30.60,30.18,19,4,23,0.00
2013-3-1,22,10,-1,0,-7,-14,73,48,30,30.83,30.59,14,2,14,0.00
2013-3-2,22,5,-19,-7,-13,-25,75,46,21,30.85,30.51,11,1,12,0.00
2013-3-3,28,9,-15,2,-10,-21,78,48,18,30.66,30.27,11,1,13,0.00
2013-3-4,28,16,-1,14,6,-8,81,64,38,30.41,30.26,16,3,21,0.00
2013-3-5,21,16,12,11,8,4,81,71,57,30.52,30.28,15,3,16,0.00
2013-3-6,20,15,10,12,10,4,88,80,66,30.58,30.47,16,4,17,0.04
2013-3-7,31,17,3,15,9,0,92,72,48,30.72,30.49,12,2,15,0.00
2013-3-8,30,25,16,24,20,14,92,83,69,30.51,30.21,13,2,17,0.00
2013-3-9,32,27,21,29,25,19,95,91,86,30.21,29.67,18,2,19,0.14
2013-3-10,29,25,20,28,22,16,95,88,80,30.12,29.67,18,5,22,0.00
2013-3-11,20,16,13,16,12,9,91,85,76,30.08,29.81,15,4,18,0.00
2013-3-12,17,12,8,14,8,5,95,85,77,30.36,29.85,17,5,22,0.03
2013-3-13,27,14,1,15,5,-3,84,70,55,30.56,30.35,16,3,17,0.00
2013-3-14,36,20,-7,29,13,-11,93,77,47,30.53,29.93,21,4,21,0.00
2013-3-15,25,13,7,21,1,-10,87,60,36,30.31,29.94,17,4,22,0.00
2013-3-16,14,4,-9,2,-4,-14,82,70,54,30.57,30.24,24,4,24,0.00
2013-3-17,18,4,-22,13,-6,-27,86,67,36,30.84,30.06,16,3,20,0.00
2013-3-18,25,22,17,21,17,10,94,82,64,30.06,29.41,25,5,25,0.06
2013-3-19,22,14,10,20,11,6,93,86,78,30.09,29.41,24,8,26,0.02
2013-3-20,14,10,5,9,4,1,95,78,66,30.35,30.08,20,7,24,0.00
2013-3-21,25,10,0,12,5,-1,92,55,48,30.31,29.95,14,3,16,0.00
2013-3-22,25,14,1,17,11,-4,92,84,72,30.04,29.96,11,2,11,0.00
2013-3-23,31,22,9,19,16,5,91,76,61,30.12,30.02,11,1,11,0.00
2013-3-24,31,24,21,20,16,10,86,70,52,30.07,29.94,12,2,13,0.00
2013-3-25,32,25,16,22,18,9,88,73,62,30.10,29.99,15,4,15,0.00
2013-3-26,34,29,24,24,21,18,88,72,56,30.16,30.09,11,2,11,0.00
2013-3-27,36,29,16,22,19,12,83,65,49,30.23,30.16,12,2,14,0.00
2013-3-28,42,27,11,19,14,7,87,62,35,30.27,30.17,14,1,15,0.00
2013-3-29,19,13,10,14,9,5,86,84,80,30.22,30.18,1,0,1,0.00
2013-4-3,33,31,30,24,19,13,69,60,49,29.94,29.81,20,6,26,0.00
2013-4-4,35,32,22,29,20,11,86,65,46,30.06,29.76,23,6,24,0.00
2013-4-5,35,23,5,17,10,1,85,59,38,30.21,29.98,12,2,12,0.00
2013-4-6,30,27,24,28,24,7,95,88,46,29.98,29.55,18,3,19,0.23
2013-4-7,37,31,27,30,27,25,94,85,67,29.81,29.57,12,2,13,0.03
2013-4-8,36,32,28,33,30,26,94,91,85,29.94,29.75,7,1,10,0.07
2013-4-9,36,31,26,31,22,15,95,71,42,30.15,29.93,18,4,18,0.00
2013-4-10,43,30,15,18,13,9,84,53,30,30.19,30.06,14,2,14,0.00
2013-4-11,27,24,20,18,14,11,77,67,56,30.10,29.85,23,6,25,0.00
2013-4-12,27,22,20,22,18,16,92,86,64,29.85,29.72,15,4,19,0.14
2013-4-13,31,23,12,25,20,9,93,87,73,29.90,29.72,13,2,14,0.00
2013-4-14,37,23,2,26,17,-2,95,78,58,29.96,29.68,19,4,20,0.03
2013-4-15,34,30,26,31,28,24,95,92,84,29.68,29.46,20,4,25,0.04
2013-4-16,33,30,27,30,27,25,100,86,77,30.31,29.66,15,4,15,0.00
2013-4-17,31,28,23,26,24,21,90,84,80,30.35,30.03,11,2,12,0.02
2013-4-18,31,27,23,29,25,21,95,93,90,30.04,29.42,24,4,28,0.39
2013-4-19,25,19,14,23,17,9,94,91,83,29.86,29.34,29,10,33,0.08
2013-4-20,31,18,7,18,9,2,92,70,48,30.21,28.16,13,3,14,0.00
2013-4-21,36,27,17,30,22,10,96,82,62,28.22,27.95,21,5,23,0.13
2013-4-22,34,31,29,31,27,24,96,83,71,28.14,27.95,15,4,15,0.01
2013-4-23,38,30,23,26,20,14,93,71,39,28.08,27.88,18,4,18,0.05
2013-4-24,41,28,8,24,17,5,87,64,41,27.88,27.76,15,2,15,0.00
2013-4-25,43,32,22,26,23,20,94,71,40,28.02,27.81,13,2,13,0.00
2013-4-26,60,44,30,37,31,20,81,61,40,28.06,27.93,18,3,18,0.00
2013-4-27,65,51,30,36,32,26,92,52,31,28.05,27.82,16,2,19,0.00
2013-4-28,59,51,38,47,42,35,94,72,55,27.82,27.66,19,3,19,0.00
2013-4-29,63,47,29,43,34,27,96,65,31,27.78,27.65,12,1,12,0.00
2013-4-30,64,53,46,53,42,27,98,72,34,27.79,27.37,23,5,27,0.08
2013-5-1,48,35,29,35,27,22,82,72,60,28.39,27.78,23,6,23,0.00
2013-5-2,36,30,26,23,20,18,77,68,56,28.45,28.36,16,5,16,0.00
2013-5-3,30,27,24,28,23,19,94,84,73,28.37,28.16,15,4,15,0.07
2013-5-4,34,30,26,33,29,25,96,95,93,28.18,28.13,8,2,8,0.08
2013-5-5,51,39,31,44,36,30,97,90,74,28.17,28.07,9,1,9,0.00
2013-5-6,67,50,32,50,42,30,95,75,52,28.07,28.00,13,2,13,0.00
2013-5-7,72,56,34,49,42,31,91,63,42,28.04,27.95,14,2,15,0.00
2013-5-8,73,59,45,53,45,39,96,62,37,28.04,27.94,13,1,13,0.21
2013-5-9,54,43,32,42,30,18,95,65,33,28.17,28.03,15,3,17,0.00
2013-5-10,53,38,26,27,19,8,85,48,27,28.17,27.82,11,2,13,0.00
2013-5-11,37,32,30,34,28,22,94,85,64,28.00,27.81,27,8,29,0.10
2013-5-12,41,32,24,25,21,18,89,64,42,28.04,28.00,21,5,21,0.01
2013-5-13,50,38,20,28,22,18,94,57,33,28.03,27.69,17,2,17,0.00
2013-5-14,64,52,35,46,38,28,78,59,45,27.70,27.38,19,2,21,0.00
2013-5-15,70,58,48,47,42,37,81,56,32,27.81,27.48,24,7,29,0.01
2013-5-16,67,51,31,38,34,29,95,57,29,28.03,27.80,13,2,13,0.00
2013-5-17,64,52,43,40,37,34,76,57,38,28.11,28.03,13,3,14,0.00
2013-5-18,53,50,47,52,46,35,98,88,64,28.05,27.86,13,2,13,0.10
2013-5-19,57,51,48,56,50,47,98,96,94,27.89,27.83,22,3,26,0.38
2013-5-20,50,47,44,50,46,43,97,96,95,27.86,27.69,28,9,31,0.75
2013-5-21,44,42,41,43,41,40,98,97,97,27.83,27.72,21,5,21,0.47
2013-5-22,63,50,42,43,39,31,98,70,31,28.07,27.81,20,4,20,0.04
2013-5-23,55,43,32,34,29,26,81,59,38,28.28,28.07,16,4,16,0.00
2013-5-24,63,50,35,37,31,26,72,50,31,28.33,28.21,13,2,13,0.00
2013-5-25,63,52,41,37,33,28,72,49,35,28.29,28.24,14,2,14,0.00
2013-5-26,66,53,39,42,33,28,67,47,33,28.28,28.15,15,2,15,0.00
2013-5-27,66,56,42,43,36,27,68,49,39,28.15,27.92,17,3,17,0.00
2013-5-28,67,55,37,44,39,34,94,58,36,27.92,27.72,16,2,19,0.00
2013-5-29,76,62,46,58,52,40,88,69,51,27.80,27.73,13,2,15,0.05
2013-5-30,71,64,58,66,62,58,98,95,83,27.75,27.63,14,3,17,0.40
2013-5-31,75,63,54,62,58,51,98,84,54,27.65,27.58,25,3,25,0.03
2013-6-1,55,46,38,52,44,37,97,95,87,27.89,27.61,22,4,24,0.13
2013-6-2,55,43,34,38,35,33,100,74,45,28.00,27.89,21,5,21,0.01
2013-6-3,63,46,30,42,33,29,97,65,31,28.09,28.00,13,2,13,0.00
2013-6-4,62,49,33,44,34,28,100,61,30,28.16,28.09,12,1,12,0.00
2013-6-5,59,51,39,45,37,30,90,60,44,28.13,28.06,15,3,17,0.00
2013-6-6,58,49,39,44,42,36,94,76,55,28.08,28.03,11,1,11,0.00
2013-6-7,70,53,33,49,38,32,100,64,30,28.03,27.94,13,1,13,0.00
2013-6-8,72,57,36,53,41,32,98,62,25,27.99,27.93,13,1,14,0.00
2013-6-9,67,56,44,52,46,36,92,71,45,28.01,27.88,16,2,19,0.12
2013-6-10,66,59,52,60,56,50,97,90,74,27.88,27.81,11,2,12,0.08
2013-6-11,72,62,50,58,52,48,97,75,45,27.89,27.80,13,2,14,0.11
2013-6-12,73,61,45,54,49,44,98,68,42,27.95,27.86,15,2,15,0.00
2013-6-13,74,61,48,51,46,42,85,62,35,28.14,27.95,14,2,14,0.00
2013-6-14,73,58,39,47,43,37,97,60,36,28.14,27.95,11,1,11,0.00
2013-6-15,71,60,51,61,52,34,87,74,44,27.95,27.78,12,1,12,0.00
2013-6-16,73,61,54,58,53,49,97,77,45,27.88,27.75,18,2,18,0.31
2013-6-17,67,53,44,53,44,36,97,75,43,28.07,27.87,11,1,11,0.05
2013-6-18,69,55,37,50,41,33,97,63,40,28.14,28.04,13,1,14,0.00
2013-6-19,75,62,48,59,49,33,92,64,44,28.04,27.95,12,1,12,0.01
2013-6-20,71,63,58,64,59,57,96,88,73,28.08,28.00,13,1,13,0.01
2013-6-21,64,59,56,60,57,55,98,95,87,28.08,27.90,15,2,15,0.01
2013-6-22,63,59,56,60,58,55,98,95,89,28.10,27.94,15,2,15,0.07
2013-6-23,72,64,57,67,62,56,99,94,81,27.94,27.72,14,2,16,0.05
2013-6-24,82,70,58,60,55,48,93,63,33,27.88,27.79,16,2,18,0.00
2013-6-25,85,72,57,65,59,54,92,66,44,27.84,27.78,9,1,11,0.00
2013-6-26,78,66,58,69,61,54,100,85,68,27.80,27.71,18,1,18,0.82
2013-6-27,80,67,60,64,61,58,98,83,50,27.77,27.68,16,1,16,0.09
2013-6-28,70,62,58,65,60,56,98,94,78,27.84,27.67,9,1,10,0.53
2013-6-29,72,62,49,56,51,47,96,72,45,28.00,27.83,12,2,12,0.00
2013-6-30,79,64,46,60,52,45,98,70,40,28.14,28.00,11,1,12,0.00
2013-7-1,78,63,49,54,50,39,97,66,38,28.24,28.14,8,1,10,0.00
2013-7-2,79,61,40,51,44,36,97,57,28,28.20,28.09,8,0,10,0.00
2013-7-3,83,65,46,57,50,38,97,60,35,28.09,27.97,10,1,11,0.00
2013-7-4,81,70,58,63,53,36,94,59,35,27.97,27.88,14,2,15,0.23
2013-7-5,82,74,62,65,62,58,90,67,50,27.89,27.81,16,3,18,0.00
2013-7-6,84,70,64,70,65,61,98,84,56,27.93,27.83,14,1,14,1.42
2013-7-7,68,64,58,66,63,56,99,95,90,27.99,27.89,8,1,9,0.07
2013-7-8,79,65,56,66,60,55,98,88,60,28.03,27.97,6,1,7,0.01
2013-7-9,72,66,58,68,62,56,97,90,79,28.00,27.77,16,1,16,0.20
2013-7-11,79,72,62,60,57,53,80,59,45,28.09,27.98,12,2,12,0.00
2013-7-12,79,71,59,66,61,54,85,72,60,28.00,27.91,22,2,22,0.00
2013-7-13,83,71,64,73,66,62,96,86,70,28.11,27.92,12,2,16,0.08
2013-7-14,69,66,64,66,64,60,98,93,81,28.23,28.09,15,1,15,0.73
2013-7-15,69,67,65,68,66,62,99,96,92,28.27,28.21,9,0,11,0.09
2013-7-16,87,75,63,74,67,62,98,77,51,28.22,28.10,15,2,16,0.11
2013-7-17,76,70,63,70,66,62,97,88,70,28.23,28.13,7,0,7,0.18
2013-7-18,76,66,62,72,65,61,99,97,87,28.13,27.68,13,1,18,2.56
2013-7-19,73,66,60,66,59,49,99,79,50,27.83,27.61,19,3,19,0.02
2013-7-20,65,55,46,51,46,43,93,73,53,28.03,27.83,11,1,13,0.00
2013-7-21,69,56,44,53,47,40,94,72,50,28.03,27.86,11,1,11,0.00
2013-7-22,76,62,52,66,56,44,100,81,60,27.86,27.58,20,5,21,0.05
2013-7-23,66,57,47,52,48,45,96,74,56,28.02,27.78,20,4,20,0.00
2013-7-24,72,58,43,59,51,43,99,81,47,28.04,27.92,13,1,14,0.07
2013-7-25,68,59,54,62,57,53,98,94,78,27.93,27.88,10,1,11,0.36
2013-7-26,56,48,44,55,47,41,98,95,89,28.05,27.88,19,3,19,0.68
2013-7-27,51,47,44,50,46,43,98,97,95,27.98,27.83,16,3,19,0.32
2013-7-28,63,53,46,54,49,46,100,86,58,28.02,27.90,20,3,20,0.11
2013-7-29,75,60,42,57,51,41,99,74,43,28.09,28.01,8,0,10,0.00
2013-7-30,67,64,59,62,58,55,96,80,70,28.09,28.00,9,0,10,0.06
2013-7-31,70,63,54,60,55,49,98,76,49,28.01,27.89,22,3,22,0.00
2013-8-1,69,59,52,58,53,50,96,83,59,27.91,27.84,23,2,23,0.01
2013-8-2,68,58,49,55,51,49,98,80,55,28.00,27.82,16,2,18,0.01
2013-8-3,64,56,46,53,50,45,97,82,63,28.19,28.00,14,2,14,0.00
2013-8-4,70,56,40,56,47,39,98,75,47,28.21,28.03,8,1,8,0.00
2013-8-5,66,59,53,60,55,46,97,89,75,28.03,27.80,6,0,6,0.08
2013-8-6,69,60,56,61,57,54,99,91,66,27.80,27.75,10,1,11,0.10
2013-8-7,66,58,49,56,50,44,97,77,53,27.98,27.76,12,2,14,0.00
2013-8-8,64,54,41,52,47,40,98,78,54,28.00,27.93,16,2,17,0.00
2013-8-9,65,54,46,54,49,45,96,84,58,28.08,27.89,16,2,16,0.02
2013-8-10,70,56,42,56,48,41,98,79,48,28.14,28.06,9,1,9,0.00
2013-8-11,70,58,46,59,53,45,98,85,58,28.07,28.00,10,0,13,0.01
2013-8-12,63,55,47,56,49,45,98,83,55,28.08,27.95,13,1,14,0.01
2013-8-13,61,53,42,49,46,41,97,81,55,28.18,28.08,9,1,10,0.00
2013-8-14,68,53,37,53,45,36,98,78,47,28.18,28.06,10,1,11,0.00
2013-8-15,75,59,42,58,50,41,98,76,44,28.09,28.04,9,1,9,0.00
2013-8-16,79,63,44,60,53,44,100,74,40,28.13,28.09,12,1,12,0.00
2013-8-17,77,67,57,60,58,54,88,73,52,28.14,28.03,18,2,18,0.00
2013-8-18,77,69,63,64,59,56,83,72,56,28.06,27.95,14,2,17,0.00
2013-8-19,83,71,64,68,63,57,92,78,56,27.95,27.88,12,2,14,0.00
2013-8-20,86,76,67,74,70,65,96,82,57,27.90,27.81,14,2,18,0.00
2013-8-21,79,71,52,70,60,48,94,71,40,28.04,27.78,21,3,21,0.03
2013-8-22,75,62,49,54,51,48,97,71,41,28.16,28.03,10,1,10,0.00
2013-8-23,76,63,47,56,52,46,97,70,45,28.18,28.07,13,1,13,0.00
2013-8-24,78,69,59,69,62,51,87,79,71,28.11,27.89,18,3,19,0.00
2013-8-25,88,78,66,77,71,64,96,81,61,27.98,27.87,14,2,15,0.03
2013-8-26,88,75,61,70,66,60,99,76,46,28.02,27.94,8,0,8,0.00
2013-8-27,88,76,64,72,67,57,98,73,53,27.99,27.90,6,0,6,0.00
2013-8-28,89,72,58,71,64,56,98,77,51,28.06,27.99,9,1,10,0.00
2013-8-29,81,68,59,69,64,58,99,89,60,28.06,27.81,15,1,18,0.85
2013-8-30,71,66,61,65,62,60,98,90,75,28.01,27.83,14,2,14,0.03
2013-8-31,80,66,60,71,62,58,98,89,71,27.95,27.73,16,2,16,0.39
2013-9-1,64,57,48,61,55,46,98,94,86,27.97,27.68,16,3,17,0.18
2013-9-2,60,50,43,52,46,42,96,88,71,28.06,27.97,16,2,16,0.01
2013-9-3,73,58,40,62,51,39,98,79,52,28.02,27.87,17,2,17,0.01
2013-9-4,66,55,43,61,44,38,95,68,42,28.18,27.93,12,2,13,0.00
2013-9-5,74,56,38,57,47,37,100,76,46,28.27,28.08,12,1,13,0.00
2013-9-6,81,68,59,69,62,50,97,80,62,28.08,27.88,11,1,11,0.00
2013-9-7,74,64,48,64,58,46,98,83,51,28.14,27.89,11,1,11,0.00
2013-9-8,65,55,44,54,49,44,98,81,59,28.17,27.93,13,1,13,0.00
2013-9-9,62,58,53,62,58,50,99,97,85,27.94,27.70,9,0,9,1.17
2013-9-10,68,62,56,63,60,55,99,95,81,27.91,27.72,13,1,16,0.06
2013-9-11,68,59,51,61,55,50,99,88,58,28.02,27.88,18,2,18,0.15
2013-9-12,53,49,42,52,45,39,97,85,72,28.20,28.01,15,3,15,0.00
2013-9-13,63,49,35,51,44,34,98,83,55,28.22,28.01,9,1,10,0.01
2013-9-14,72,59,48,57,52,44,97,78,56,28.03,27.84,13,2,14,0.12
2013-9-15,56,48,42,55,44,37,97,88,56,28.20,27.90,14,3,14,0.41
2013-9-16,62,53,44,49,42,36,94,70,44,28.36,28.22,12,2,13,0.01
2013-9-17,62,52,44,51,47,42,100,82,60,28.22,27.96,15,2,17,0.01
2013-9-18,66,57,50,60,55,47,97,93,83,27.95,27.80,13,1,13,0.00
2013-9-19,64,61,60,63,61,60,99,98,97,27.81,27.66,13,1,15,1.38
2013-9-20,61,51,42,61,50,40,100,95,86,27.80,27.66,15,3,15,0.05
2013-9-21,49,40,30,40,36,29,96,86,65,27.97,27.80,16,3,16,0.03
2013-9-22,53,42,30,43,38,29,97,86,66,28.03,27.94,16,2,16,0.01
2013-9-23,63,53,45,52,48,43,95,84,67,27.98,27.93,18,4,18,0.00
2013-9-24,68,56,48,56,50,47,97,83,57,27.99,27.95,13,2,13,0.01
2013-9-25,70,55,41,56,49,40,98,82,53,28.00,27.95,9,0,9,0.00
2013-9-26,66,55,46,55,50,44,98,85,64,28.02,27.95,15,2,16,0.00
2013-9-27,70,63,58,60,56,52,87,78,68,27.98,27.84,21,5,22,0.01
2013-9-28,64,58,45,60,53,43,97,83,69,27.86,27.53,19,5,22,0.45
2013-9-29,67,53,40,49,44,39,96,75,42,27.86,27.75,21,2,21,0.00
2013-9-30,65,58,53,53,50,47,82,75,63,27.80,27.60,19,3,19,0.00
2013-10-1,67,59,52,54,44,34,84,60,33,27.82,27.54,22,4,23,0.00
2013-10-2,64,53,45,46,40,37,92,64,39,28.03,27.82,17,2,17,0.01
2013-10-3,60,50,42,48,45,41,97,83,58,28.06,27.97,13,1,15,0.05
2013-10-4,53,48,45,47,44,39,96,85,67,28.16,28.06,15,1,15,0.04
2013-10-5,45,41,38,41,39,37,97,94,79,28.14,27.82,20,4,20,0.43
2013-10-6,46,43,41,44,42,40,97,96,91,27.84,27.67,16,3,17,0.67
2013-10-7,53,42,32,41,38,31,97,86,57,27.92,27.69,19,2,19,0.01
2013-10-8,64,52,32,48,42,31,97,72,55,27.92,27.76,21,4,21,0.00
2013-10-9,72,60,50,54,49,46,94,70,51,28.03,27.84,17,2,17,0.00
2013-10-10,68,58,52,52,48,44,90,71,50,28.04,27.97,15,2,15,0.00
2013-10-11,65,58,51,55,50,45,86,76,68,27.99,27.74,20,4,21,0.00
2013-10-12,58,53,44,54,47,42,95,81,62,27.92,27.66,20,5,22,0.02
2013-10-13,51,42,30,43,35,29,95,80,52,28.33,27.92,20,3,20,0.00
2013-10-14,50,40,27,40,34,26,97,82,58,28.34,28.17,7,0,8,0.18
2013-10-15,41,40,38,40,39,37,96,96,94,28.17,27.83,16,3,18,0.36
2013-10-16,49,39,30,37,34,28,100,84,54,27.83,27.78,13,2,15,0.00
2013-10-17,44,39,32,42,37,31,100,93,84,27.77,27.74,10,1,12,0.31
2013-10-18,44,37,31,36,33,28,95,85,56,27.82,27.73,12,2,12,0.02
2013-10-19,40,32,28,35,30,27,96,92,77,27.73,27.61,6,0,6,0.14
2013-10-20,40,33,28,36,31,27,97,92,70,27.69,27.65,8,0,9,0.01
2013-10-21,32,29,27,31,28,25,96,94,89,27.74,27.59,18,5,18,0.12
2013-10-22,31,28,26,28,25,23,100,88,76,27.89,27.74,16,4,16,0.00
2013-10-23,30,28,25,28,24,22,93,85,77,27.90,27.80,21,4,21,0.00
2013-10-24,36,31,29,29,27,24,95,85,68,28.10,27.89,11,3,15,0.03
2013-10-25,38,34,29,36,30,26,94,86,71,28.10,27.54,20,4,20,0.03
2013-10-26,37,33,31,35,28,24,94,81,65,27.92,27.55,24,5,24,0.01
2013-10-27,34,31,23,31,26,16,93,84,71,28.20,27.69,21,4,22,0.00
2013-10-28,32,23,15,19,16,12,90,75,49,28.41,28.19,15,2,16,0.00
2013-10-29,36,24,11,25,18,8,94,81,59,28.36,28.06,11,1,12,0.00
2013-10-30,39,32,22,38,30,20,97,92,81,28.06,27.63,12,1,13,0.03
2013-10-31,41,39,36,40,38,35,98,97,97,27.65,27.30,11,1,13,0.00
2013-11-1,36,34,32,35,33,29,98,93,88,27.74,27.29,14,3,14,0.00
2013-11-2,36,33,31,31,30,28,95,87,73,28.02,27.74,8,1,10,0.00
2013-11-3,40,35,30,34,32,28,97,90,78,28.08,27.96,21,4,22,0.00
2013-11-4,39,37,32,38,35,30,96,93,86,27.96,27.75,19,5,21,0.24
2013-11-5,35,31,28,30,26,24,91,82,68,28.04,27.92,17,3,17,0.00
2013-11-6,29,27,25,25,23,21,89,86,82,27.95,27.86,16,4,16,0.00
2013-11-7,29,28,26,25,23,21,90,82,71,28.03,27.95,15,3,15,0.00
2013-11-8,36,29,19,30,24,16,96,83,58,28.03,27.63,15,2,17,0.07
2013-11-9,32,31,30,31,30,29,97,96,96,27.91,27.52,16,4,20,0.11
2013-11-10,31,28,15,29,26,12,96,92,84,28.06,27.90,19,5,23,0.04
2013-11-11,15,12,9,12,9,5,89,85,82,28.44,27.98,21,6,25,0.00
2013-11-12,24,16,7,14,10,4,89,77,62,28.46,28.13,17,4,17,0.00
2013-11-13,43,32,19,32,26,11,84,76,63,28.13,27.59,23,5,23,0.00
2013-11-14,36,32,30,32,28,27,89,86,82,27.70,27.66,11,2,11,0.00
2013-11-15,43,35,30,36,32,27,96,87,65,27.70,27.61,13,3,14,0.01
2013-11-16,41,38,36,39,36,34,97,92,88,27.61,27.28,17,3,21,0.01
2013-11-17,40,35,25,40,34,23,98,97,94,27.43,27.20,20,3,24,0.07
2013-11-18,25,19,15,23,16,12,100,89,85,28.09,27.43,22,7,26,0.00
2013-11-19,34,22,13,27,19,11,93,88,73,28.15,27.80,23,4,26,0.00
2013-11-20,39,36,33,31,28,26,91,76,59,27.94,27.78,22,3,22,0.00
2013-11-21,33,24,13,31,20,9,94,87,82,28.32,27.94,19,4,19,0.00
2013-11-22,21,12,2,11,7,-3,90,79,53,28.35,28.17,22,5,25,0.00
2013-11-23,6,1,-3,-2,-4,-7,85,76,63,28.52,28.35,19,6,20,0.00
2013-11-24,26,12,-2,19,6,-6,86,78,62,28.41,27.57,24,4,29,0.00
2013-11-25,31,27,14,27,22,6,92,82,69,27.78,27.52,24,6,24,0.00
2013-11-26,14,7,3,7,2,-3,86,80,71,28.16,27.78,20,7,21,0.00
2013-11-27,15,11,7,10,8,4,89,85,76,28.17,27.98,14,2,16,0.00
2013-11-28,16,12,5,13,9,2,89,88,84,28.31,27.97,9,1,9,0.06
2013-11-29,22,10,-10,20,8,-14,92,87,81,28.34,28.00,11,2,14,0.00
2013-11-30,25,23,22,22,21,20,94,92,88,28.04,27.90,12,2,12,0.02
2013-12-1,23,21,20,21,19,18,93,92,91,28.04,27.83,7,0,7,0.06
2013-12-2,28,23,20,26,22,18,95,93,91,27.83,27.71,16,2,16,0.09
2013-12-3,27,19,11,26,17,8,95,92,89,27.91,27.74,24,4,24,0.04
2013-12-4,16,14,10,15,12,8,92,91,89,27.90,27.29,20,5,22,0.13
2013-12-5,13,8,2,11,5,-1,96,88,85,27.87,27.27,23,6,23,0.03
2013-12-6,2,-4,-11,-1,-8,-15,87,84,82,28.22,27.87,18,4,18,0.00
2013-12-7,-1,-12,-19,-5,-16,-24,83,81,79,28.29,28.21,12,2,12,0.00
2013-12-8,9,-6,-23,6,-10,-28,89,83,76,28.22,27.80,9,1,12,0.02
2013-12-9,10,-3,-12,7,-7,-15,92,84,80,27.80,27.58,20,3,20,0.01
2013-12-10,-5,-11,-22,-8,-16,-27,94,81,77,27.91,27.61,16,3,16,0.00
2013-12-11,-6,-13,-18,-11,-17,-23,92,81,78,28.12,27.89,15,4,17,0.00
2013-12-12,-1,-8,-16,-6,-12,-20,84,82,79,28.00,27.89,19,4,19,0.00
2013-12-13,-8,-16,-24,-14,-20,-28,92,78,71,28.21,28.00,10,2,10,0.00
2013-12-14,9,-2,-20,6,-5,-24,92,84,79,28.20,27.76,10,2,11,0.03
2013-12-15,-1,-14,-28,-5,-18,-34,85,81,75,27.92,27.77,13,3,13,0.00
2013-12-16,12,1,-29,10,-2,-34,90,86,75,27.91,27.58,14,2,14,0.02
2013-12-17,14,7,-2,12,4,-6,91,88,85,27.82,27.56,16,4,18,0.00
2013-12-18,15,5,-14,14,2,-18,100,88,81,27.81,27.54,12,1,14,0.01
2013-12-19,14,1,-5,11,-2,-8,92,84,79,28.02,27.61,16,3,17,0.00
2013-12-20,14,4,-17,11,0,-22,92,85,78,27.96,27.72,14,1,14,0.01
2013-12-21,14,9,0,10,6,-4,89,87,85,27.95,27.72,10,1,11,0.00
2013-12-22,0,-4,-11,-4,-8,-15,95,83,81,28.07,27.91,10,3,10,0.01
2013-12-23,-3,-14,-26,-8,-19,-31,82,79,75,28.25,28.07,10,1,10,0.00
2013-12-24,12,4,-26,8,0,-32,89,85,75,28.20,27.88,16,3,16,0.00
2013-12-25,11,5,-2,6,2,-6,87,85,80,27.88,27.78,13,3,14,0.00
2013-12-26,7,-7,-19,2,-11,-24,92,81,76,27.97,27.84,9,1,9,0.00
2013-12-27,28,18,-5,26,16,-8,95,92,84,27.95,27.60,18,4,19,0.00
2013-12-28,27,15,-5,26,13,-9,95,91,84,27.94,27.72,16,2,16,0.00
2013-12-29,-5,-16,-21,-8,-20,-26,92,80,78,28.04,27.93,14,3,15,0.00
2013-12-30,-10,-23,-33,-14,-27,-39,82,78,74,27.97,27.88,8,1,8,0.00
2013-12-31,-15,-24,-34,-18,-28,-40,92,78,74,28.16,27.86,12,2,16,0.00
2014-1-1,-12,-24,-35,-16,-29,-41,80,77,73,28.26,28.15,7,0,8,0.00
2014-1-2,-8,-26,-38,-13,-31,-43,81,76,72,28.23,28.04,7,0,7,0.00